Allentown, Arizona
Current Conditions -  °F | °C
As of 9:53 PM on Thursday 20 Nov 2014 (Local Time) from KGUP Reporting Station
Clear Clear  
Wind Chill: 27°   Ceiling: Unl
Heat Index: 27°   Visibility: 10mi
Dew Point: 10°   Wind: 0mph
Humidity: 49%   Direction: NA
Pressure: 30.11"   Gusts: NA
Location:  35.2918°N, 109.157°W
Report Text: KGUP 210453Z AUTO 00000KT 10SM CLR M03/M12 A3011 RMK AO2 SLP204 T10281122
Loading
Personal Weather Stations






























Interactive Weather Map New forecast layout! Learn more

10-Day Weather Forecast

Advertisements
Track Severe Weather on mobile